sensor_id;sensor_type;location;lat;lon;timestamp;P1;durP1;ratioP1;P2;durP2;ratioP2
78224;SDS011;67498;53.650;10.090;2023-07-09T00:01:48;4.13;;;0.95;;
78224;SDS011;67498;53.650;10.090;2023-07-09T00:04:14;3.37;;;0.90;;
78224;SDS011;67498;53.650;10.090;2023-07-09T00:06:39;4.77;;;0.97;;
78224;SDS011;67498;53.650;10.090;2023-07-09T00:09:06;4.17;;;0.90;;
78224;SDS011;67498;53.650;10.090;2023-07-09T00:11:37;4.10;;;1.05;;
78224;SDS011;67498;53.650;10.090;2023-07-09T00:14:04;3.03;;;0.80;;
78224;SDS011;67498;53.650;10.090;2023-07-09T00:16:30;3.90;;;1.23;;
78224;SDS011;67498;53.650;10.090;2023-07-09T00:18:55;7.73;;;0.90;;
78224;SDS011;67498;53.650;10.090;2023-07-09T00:21:21;5.13;;;1.00;;
78224;SDS011;67498;53.650;10.090;2023-07-09T00:23:47;4.35;;;0.95;;
78224;SDS011;67498;53.650;10.090;2023-07-09T00:26:16;4.65;;;1.10;;
78224;SDS011;67498;53.650;10.090;2023-07-09T00:28:42;6.82;;;1.10;;
78224;SDS011;67498;53.650;10.090;2023-07-09T00:31:12;3.43;;;1.03;;
78224;SDS011;67498;53.650;10.090;2023-07-09T00:33:41;2.73;;;0.80;;
78224;SDS011;67498;53.650;10.090;2023-07-09T00:36:10;3.15;;;0.80;;
78224;SDS011;67498;53.650;10.090;2023-07-09T00:38:40;3.50;;;1.00;;
78224;SDS011;67498;53.650;10.090;2023-07-09T00:41:06;3.73;;;1.10;;
78224;SDS011;67498;53.650;10.090;2023-07-09T00:43:43;3.90;;;0.95;;
78224;SDS011;67498;53.650;10.090;2023-07-09T00:49:06;4.32;;;1.20;;
78224;SDS011;67498;53.650;10.090;2023-07-09T00:51:36;8.43;;;1.05;;
78224;SDS011;67498;53.650;10.090;2023-07-09T00:54:08;3.40;;;0.90;;
78224;SDS011;67498;53.650;10.090;2023-07-09T00:56:40;4.25;;;0.98;;
78224;SDS011;67498;53.650;10.090;2023-07-09T00:59:11;3.92;;;1.00;;
78224;SDS011;67498;53.650;10.090;2023-07-09T01:01:40;5.18;;;1.17;;
78224;SDS011;67498;53.650;10.090;2023-07-09T01:04:06;4.37;;;1.03;;
78224;SDS011;67498;53.650;10.090;2023-07-09T01:06:45;3.30;;;0.90;;
78224;SDS011;67498;53.650;10.090;2023-07-09T01:09:13;3.67;;;0.90;;
78224;SDS011;67498;53.650;10.090;2023-07-09T01:11:39;7.22;;;1.33;;
78224;SDS011;67498;53.650;10.090;2023-07-09T01:14:06;3.60;;;0.97;;
78224;SDS011;67498;53.650;10.090;2023-07-09T01:16:34;4.43;;;0.85;;
78224;SDS011;67498;53.650;10.090;2023-07-09T01:19:04;2.75;;;0.65;;
78224;SDS011;67498;53.650;10.090;2023-07-09T01:21:30;4.43;;;1.03;;
78224;SDS011;67498;53.650;10.090;2023-07-09T01:23:57;3.83;;;1.00;;
78224;SDS011;67498;53.650;10.090;2023-07-09T01:26:24;3.13;;;0.80;;
78224;SDS011;67498;53.650;10.090;2023-07-09T01:28:52;5.40;;;0.93;;
78224;SDS011;67498;53.650;10.090;2023-07-09T01:31:18;3.00;;;0.80;;
78224;SDS011;67498;53.650;10.090;2023-07-09T01:33:45;3.25;;;0.75;;
78224;SDS011;67498;53.650;10.090;2023-07-09T01:36:13;5.28;;;1.27;;
78224;SDS011;67498;53.650;10.090;2023-07-09T01:38:41;4.03;;;1.00;;
78224;SDS011;67498;53.650;10.090;2023-07-09T01:41:07;3.30;;;1.00;;
78224;SDS011;67498;53.650;10.090;2023-07-09T01:43:32;5.28;;;1.13;;
78224;SDS011;67498;53.650;10.090;2023-07-09T01:45:58;6.80;;;1.03;;
78224;SDS011;67498;53.650;10.090;2023-07-09T01:48:24;3.57;;;1.10;;
78224;SDS011;67498;53.650;10.090;2023-07-09T01:50:51;5.55;;;1.40;;
78224;SDS011;67498;53.650;10.090;2023-07-09T01:53:17;3.85;;;0.90;;
78224;SDS011;67498;53.650;10.090;2023-07-09T01:55:48;3.22;;;0.80;;
78224;SDS011;67498;53.650;10.090;2023-07-09T01:58:14;5.80;;;1.00;;
78224;SDS011;67498;53.650;10.090;2023-07-09T02:00:41;5.15;;;1.05;;
78224;SDS011;67498;53.650;10.090;2023-07-09T02:03:06;5.25;;;1.02;;
78224;SDS011;67498;53.650;10.090;2023-07-09T02:05:32;3.30;;;0.83;;
78224;SDS011;67498;53.650;10.090;2023-07-09T02:07:58;5.97;;;1.02;;
78224;SDS011;67498;53.650;10.090;2023-07-09T02:10:24;3.10;;;0.90;;
78224;SDS011;67498;53.650;10.090;2023-07-09T02:12:49;3.00;;;0.73;;
78224;SDS011;67498;53.650;10.090;2023-07-09T02:15:15;4.40;;;0.97;;
78224;SDS011;67498;53.650;10.090;2023-07-09T02:17:41;2.75;;;0.90;;
78224;SDS011;67498;53.650;10.090;2023-07-09T02:20:07;2.60;;;0.67;;
78224;SDS011;67498;53.650;10.090;2023-07-09T02:22:34;3.13;;;0.80;;
78224;SDS011;67498;53.650;10.090;2023-07-09T02:24:59;3.55;;;1.13;;
78224;SDS011;67498;53.650;10.090;2023-07-09T02:27:25;3.13;;;0.80;;
78224;SDS011;67498;53.650;10.090;2023-07-09T02:29:50;3.63;;;1.00;;
78224;SDS011;67498;53.650;10.090;2023-07-09T02:32:19;3.30;;;0.87;;
78224;SDS011;67498;53.650;10.090;2023-07-09T02:34:46;3.38;;;0.93;;
78224;SDS011;67498;53.650;10.090;2023-07-09T02:37:14;3.20;;;0.90;;
78224;SDS011;67498;53.650;10.090;2023-07-09T02:39:40;3.97;;;0.90;;
78224;SDS011;67498;53.650;10.090;2023-07-09T02:42:08;4.13;;;0.97;;
78224;SDS011;67498;53.650;10.090;2023-07-09T02:44:35;4.40;;;1.00;;
78224;SDS011;67498;53.650;10.090;2023-07-09T02:47:00;3.57;;;0.90;;
78224;SDS011;67498;53.650;10.090;2023-07-09T02:49:25;3.60;;;0.90;;
78224;SDS011;67498;53.650;10.090;2023-07-09T02:51:50;4.57;;;1.20;;
78224;SDS011;67498;53.650;10.090;2023-07-09T02:54:16;3.97;;;1.10;;
78224;SDS011;67498;53.650;10.090;2023-07-09T02:56:41;4.33;;;1.40;;
78224;SDS011;67498;53.650;10.090;2023-07-09T02:59:06;4.03;;;1.10;;
78224;SDS011;67498;53.650;10.090;2023-07-09T03:01:31;5.00;;;1.23;;
78224;SDS011;67498;53.650;10.090;2023-07-09T03:03:59;3.00;;;0.85;;
78224;SDS011;67498;53.650;10.090;2023-07-09T03:06:26;4.25;;;0.90;;
78224;SDS011;67498;53.650;10.090;2023-07-09T03:08:53;5.72;;;1.25;;
78224;SDS011;67498;53.650;10.090;2023-07-09T03:11:19;3.33;;;0.90;;
78224;SDS011;67498;53.650;10.090;2023-07-09T03:13:45;4.85;;;1.00;;
78224;SDS011;67498;53.650;10.090;2023-07-09T03:16:11;5.13;;;1.05;;
78224;SDS011;67498;53.650;10.090;2023-07-09T03:18:37;3.03;;;0.77;;
78224;SDS011;67498;53.650;10.090;2023-07-09T03:21:03;3.00;;;0.80;;
78224;SDS011;67498;53.650;10.090;2023-07-09T03:23:29;3.75;;;0.90;;
78224;SDS011;67498;53.650;10.090;2023-07-09T03:25:55;2.47;;;0.57;;
78224;SDS011;67498;53.650;10.090;2023-07-09T03:28:20;4.82;;;1.05;;
78224;SDS011;67498;53.650;10.090;2023-07-09T03:30:47;3.53;;;1.33;;
78224;SDS011;67498;53.650;10.090;2023-07-09T03:33:13;3.78;;;1.10;;
78224;SDS011;67498;53.650;10.090;2023-07-09T03:35:40;8.25;;;0.90;;
78224;SDS011;67498;53.650;10.090;2023-07-09T03:38:06;3.07;;;0.73;;
78224;SDS011;67498;53.650;10.090;2023-07-09T03:40:32;2.92;;;0.90;;
78224;SDS011;67498;53.650;10.090;2023-07-09T03:42:58;3.27;;;0.87;;
78224;SDS011;67498;53.650;10.090;2023-07-09T03:45:23;3.00;;;0.80;;
78224;SDS011;67498;53.650;10.090;2023-07-09T03:47:48;3.13;;;1.00;;
78224;SDS011;67498;53.650;10.090;2023-07-09T03:50:14;2.63;;;0.60;;
78224;SDS011;67498;53.650;10.090;2023-07-09T03:52:39;3.63;;;0.90;;
78224;SDS011;67498;53.650;10.090;2023-07-09T03:55:05;3.40;;;0.80;;
78224;SDS011;67498;53.650;10.090;2023-07-09T03:57:31;3.83;;;1.20;;
78224;SDS011;67498;53.650;10.090;2023-07-09T03:59:57;3.10;;;0.90;;
78224;SDS011;67498;53.650;10.090;2023-07-09T04:02:23;3.50;;;0.80;;
78224;SDS011;67498;53.650;10.090;2023-07-09T04:04:48;3.80;;;0.83;;
78224;SDS011;67498;53.650;10.090;2023-07-09T04:07:13;3.77;;;1.00;;
78224;SDS011;67498;53.650;10.090;2023-07-09T04:09:40;4.90;;;1.20;;
78224;SDS011;67498;53.650;10.090;2023-07-09T04:12:05;4.05;;;1.08;;
78224;SDS011;67498;53.650;10.090;2023-07-09T04:14:31;3.77;;;0.90;;
78224;SDS011;67498;53.650;10.090;2023-07-09T04:16:56;3.33;;;0.80;;
78224;SDS011;67498;53.650;10.090;2023-07-09T04:19:22;6.20;;;0.80;;
78224;SDS011;67498;53.650;10.090;2023-07-09T04:21:48;4.07;;;1.00;;
78224;SDS011;67498;53.650;10.090;2023-07-09T04:24:14;3.33;;;0.97;;
78224;SDS011;67498;53.650;10.090;2023-07-09T04:26:41;2.92;;;0.80;;
78224;SDS011;67498;53.650;10.090;2023-07-09T04:29:07;4.63;;;1.10;;
78224;SDS011;67498;53.650;10.090;2023-07-09T04:31:32;3.77;;;1.10;;
78224;SDS011;67498;53.650;10.090;2023-07-09T04:33:57;3.23;;;0.77;;
78224;SDS011;67498;53.650;10.090;2023-07-09T04:36:22;4.53;;;0.90;;
78224;SDS011;67498;53.650;10.090;2023-07-09T04:38:48;4.30;;;0.90;;
78224;SDS011;67498;53.650;10.090;2023-07-09T04:41:13;3.45;;;0.80;;
78224;SDS011;67498;53.650;10.090;2023-07-09T04:43:38;3.07;;;0.80;;
78224;SDS011;67498;53.650;10.090;2023-07-09T04:46:04;3.97;;;0.90;;
78224;SDS011;67498;53.650;10.090;2023-07-09T04:48:29;4.17;;;0.77;;
78224;SDS011;67498;53.650;10.090;2023-07-09T04:50:54;4.13;;;0.90;;
78224;SDS011;67498;53.650;10.090;2023-07-09T04:53:19;4.77;;;1.00;;
78224;SDS011;67498;53.650;10.090;2023-07-09T04:55:45;3.83;;;0.70;;
78224;SDS011;67498;53.650;10.090;2023-07-09T04:58:10;3.55;;;0.90;;
78224;SDS011;67498;53.650;10.090;2023-07-09T05:00:36;4.10;;;1.00;;
78224;SDS011;67498;53.650;10.090;2023-07-09T05:03:01;3.60;;;1.23;;
78224;SDS011;67498;53.650;10.090;2023-07-09T05:05:26;3.87;;;0.83;;
78224;SDS011;67498;53.650;10.090;2023-07-09T05:07:51;4.23;;;0.97;;
78224;SDS011;67498;53.650;10.090;2023-07-09T05:10:17;4.67;;;1.10;;
78224;SDS011;67498;53.650;10.090;2023-07-09T05:12:52;3.47;;;0.80;;
78224;SDS011;67498;53.650;10.090;2023-07-09T05:15:19;3.08;;;0.82;;
78224;SDS011;67498;53.650;10.090;2023-07-09T05:17:46;3.75;;;0.98;;
78224;SDS011;67498;53.650;10.090;2023-07-09T05:20:12;3.53;;;1.13;;
78224;SDS011;67498;53.650;10.090;2023-07-09T05:22:38;3.47;;;1.10;;
78224;SDS011;67498;53.650;10.090;2023-07-09T05:25:04;3.80;;;0.93;;
78224;SDS011;67498;53.650;10.090;2023-07-09T05:27:29;3.30;;;0.93;;
78224;SDS011;67498;53.650;10.090;2023-07-09T05:29:55;3.37;;;0.90;;
78224;SDS011;67498;53.650;10.090;2023-07-09T05:32:20;3.37;;;1.03;;
78224;SDS011;67498;53.650;10.090;2023-07-09T05:34:45;4.20;;;1.10;;
78224;SDS011;67498;53.650;10.090;2023-07-09T05:37:11;3.70;;;1.10;;
78224;SDS011;67498;53.650;10.090;2023-07-09T05:39:36;3.60;;;1.10;;
78224;SDS011;67498;53.650;10.090;2023-07-09T05:42:01;4.03;;;1.10;;
78224;SDS011;67498;53.650;10.090;2023-07-09T05:44:27;5.05;;;1.33;;
78224;SDS011;67498;53.650;10.090;2023-07-09T05:46:52;4.63;;;1.37;;
78224;SDS011;67498;53.650;10.090;2023-07-09T05:49:17;3.70;;;1.40;;
78224;SDS011;67498;53.650;10.090;2023-07-09T05:51:42;3.23;;;1.03;;
78224;SDS011;67498;53.650;10.090;2023-07-09T05:54:08;7.73;;;1.10;;
78224;SDS011;67498;53.650;10.090;2023-07-09T05:56:33;4.00;;;1.30;;
78224;SDS011;67498;53.650;10.090;2023-07-09T05:58:58;5.20;;;1.50;;
78224;SDS011;67498;53.650;10.090;2023-07-09T06:01:24;4.88;;;1.30;;
78224;SDS011;67498;53.650;10.090;2023-07-09T06:03:49;4.23;;;1.40;;
78224;SDS011;67498;53.650;10.090;2023-07-09T06:06:15;3.90;;;1.40;;
78224;SDS011;67498;53.650;10.090;2023-07-09T06:08:41;4.47;;;1.50;;
78224;SDS011;67498;53.650;10.090;2023-07-09T06:11:06;4.77;;;1.60;;
78224;SDS011;67498;53.650;10.090;2023-07-09T06:13:32;4.47;;;1.67;;
78224;SDS011;67498;53.650;10.090;2023-07-09T06:15:57;5.33;;;1.30;;
78224;SDS011;67498;53.650;10.090;2023-07-09T06:18:23;4.00;;;1.37;;
78224;SDS011;67498;53.650;10.090;2023-07-09T06:20:54;4.28;;;1.60;;
78224;SDS011;67498;53.650;10.090;2023-07-09T06:23:22;11.10;;;5.47;;
78224;SDS011;67498;53.650;10.090;2023-07-09T06:25:47;8.43;;;2.27;;
78224;SDS011;67498;53.650;10.090;2023-07-09T06:28:17;5.70;;;1.85;;
78224;SDS011;67498;53.650;10.090;2023-07-09T06:30:44;4.25;;;1.50;;
78224;SDS011;67498;53.650;10.090;2023-07-09T06:33:10;5.93;;;1.60;;
78224;SDS011;67498;53.650;10.090;2023-07-09T06:35:37;5.60;;;1.70;;
78224;SDS011;67498;53.650;10.090;2023-07-09T06:38:03;4.13;;;1.50;;
78224;SDS011;67498;53.650;10.090;2023-07-09T06:40:28;5.20;;;1.70;;
78224;SDS011;67498;53.650;10.090;2023-07-09T06:42:54;4.63;;;1.80;;
78224;SDS011;67498;53.650;10.090;2023-07-09T06:45:19;4.80;;;1.83;;
78224;SDS011;67498;53.650;10.090;2023-07-09T06:47:45;3.90;;;1.63;;
78224;SDS011;67498;53.650;10.090;2023-07-09T06:50:11;5.50;;;2.10;;
78224;SDS011;67498;53.650;10.090;2023-07-09T06:52:37;3.92;;;1.67;;
78224;SDS011;67498;53.650;10.090;2023-07-09T06:55:02;5.07;;;1.77;;
78224;SDS011;67498;53.650;10.090;2023-07-09T06:57:27;4.13;;;1.70;;
78224;SDS011;67498;53.650;10.090;2023-07-09T06:59:52;5.77;;;1.97;;
78224;SDS011;67498;53.650;10.090;2023-07-09T07:02:18;4.87;;;1.73;;
78224;SDS011;67498;53.650;10.090;2023-07-09T07:04:43;4.57;;;1.77;;
78224;SDS011;67498;53.650;10.090;2023-07-09T07:07:08;4.33;;;1.87;;
78224;SDS011;67498;53.650;10.090;2023-07-09T07:09:34;4.65;;;1.90;;
78224;SDS011;67498;53.650;10.090;2023-07-09T07:11:59;5.00;;;1.60;;
78224;SDS011;67498;53.650;10.090;2023-07-09T07:14:25;5.53;;;1.60;;
78224;SDS011;67498;53.650;10.090;2023-07-09T07:16:50;7.20;;;3.10;;
78224;SDS011;67498;53.650;10.090;2023-07-09T07:19:49;4.07;;;1.70;;
78224;SDS011;67498;53.650;10.090;2023-07-09T07:22:15;4.75;;;1.65;;
78224;SDS011;67498;53.650;10.090;2023-07-09T07:24:40;4.13;;;1.80;;
78224;SDS011;67498;53.650;10.090;2023-07-09T07:27:05;4.90;;;1.77;;
78224;SDS011;67498;53.650;10.090;2023-07-09T07:29:31;4.10;;;1.80;;
78224;SDS011;67498;53.650;10.090;2023-07-09T07:33:34;11.70;;;4.73;;
78224;SDS011;67498;53.650;10.090;2023-07-09T07:36:00;5.90;;;2.20;;
78224;SDS011;67498;53.650;10.090;2023-07-09T07:38:25;4.13;;;1.80;;
78224;SDS011;67498;53.650;10.090;2023-07-09T07:40:51;4.25;;;1.73;;
78224;SDS011;67498;53.650;10.090;2023-07-09T07:43:16;4.30;;;1.83;;
78224;SDS011;67498;53.650;10.090;2023-07-09T07:45:42;4.63;;;2.00;;
78224;SDS011;67498;53.650;10.090;2023-07-09T07:48:08;9.15;;;3.05;;
78224;SDS011;67498;53.650;10.090;2023-07-09T07:50:33;7.73;;;2.00;;
78224;SDS011;67498;53.650;10.090;2023-07-09T07:52:59;4.67;;;1.77;;
78224;SDS011;67498;53.650;10.090;2023-07-09T07:55:24;4.70;;;1.97;;
78224;SDS011;67498;53.650;10.090;2023-07-09T07:57:49;5.23;;;1.90;;
78224;SDS011;67498;53.650;10.090;2023-07-09T08:00:15;4.63;;;1.70;;
78224;SDS011;67498;53.650;10.090;2023-07-09T08:02:41;6.73;;;1.83;;
78224;SDS011;67498;53.650;10.090;2023-07-09T08:05:06;8.73;;;1.93;;
78224;SDS011;67498;53.650;10.090;2023-07-09T08:07:31;7.03;;;1.80;;
78224;SDS011;67498;53.650;10.090;2023-07-09T08:09:57;5.90;;;1.70;;
78224;SDS011;67498;53.650;10.090;2023-07-09T08:12:22;6.67;;;2.00;;
78224;SDS011;67498;53.650;10.090;2023-07-09T08:14:47;4.47;;;1.60;;
78224;SDS011;67498;53.650;10.090;2023-07-09T08:17:13;3.80;;;1.30;;
78224;SDS011;67498;53.650;10.090;2023-07-09T08:19:49;5.17;;;1.90;;
78224;SDS011;67498;53.650;10.090;2023-07-09T08:22:16;5.20;;;1.70;;
78224;SDS011;67498;53.650;10.090;2023-07-09T08:24:42;4.13;;;1.52;;
78224;SDS011;67498;53.650;10.090;2023-07-09T08:27:07;4.47;;;1.70;;
78224;SDS011;67498;53.650;10.090;2023-07-09T08:29:33;4.30;;;1.75;;
78224;SDS011;67498;53.650;10.090;2023-07-09T08:31:59;7.85;;;1.60;;
78224;SDS011;67498;53.650;10.090;2023-07-09T08:34:24;5.27;;;1.70;;
78224;SDS011;67498;53.650;10.090;2023-07-09T08:36:50;7.13;;;1.80;;
78224;SDS011;67498;53.650;10.090;2023-07-09T08:39:15;4.20;;;1.60;;
78224;SDS011;67498;53.650;10.090;2023-07-09T08:41:48;5.13;;;1.40;;
78224;SDS011;67498;53.650;10.090;2023-07-09T08:47:13;4.75;;;1.85;;
78224;SDS011;67498;53.650;10.090;2023-07-09T08:49:58;5.00;;;1.88;;
78224;SDS011;67498;53.650;10.090;2023-07-09T08:55:09;5.40;;;1.90;;
78224;SDS011;67498;53.650;10.090;2023-07-09T08:57:37;5.25;;;1.90;;
78224;SDS011;67498;53.650;10.090;2023-07-09T09:00:15;6.47;;;1.70;;
78224;SDS011;67498;53.650;10.090;2023-07-09T09:02:45;4.68;;;1.92;;
78224;SDS011;67498;53.650;10.090;2023-07-09T09:05:17;4.32;;;1.67;;
78224;SDS011;67498;53.650;10.090;2023-07-09T09:07:45;4.27;;;1.70;;
78224;SDS011;67498;53.650;10.090;2023-07-09T09:10:21;4.60;;;1.88;;
78224;SDS011;67498;53.650;10.090;2023-07-09T09:13:13;5.72;;;1.92;;
78224;SDS011;67498;53.650;10.090;2023-07-09T09:18:31;5.67;;;2.50;;
78224;SDS011;67498;53.650;10.090;2023-07-09T09:21:21;5.03;;;2.33;;
78224;SDS011;67498;53.650;10.090;2023-07-09T09:23:52;4.90;;;2.15;;
78224;SDS011;67498;53.650;10.090;2023-07-09T09:28:48;6.00;;;2.40;;
78224;SDS011;67498;53.650;10.090;2023-07-09T09:31:13;6.13;;;2.67;;
78224;SDS011;67498;53.650;10.090;2023-07-09T09:33:44;6.23;;;2.30;;
78224;SDS011;67498;53.650;10.090;2023-07-09T09:36:21;6.38;;;2.47;;
78224;SDS011;67498;53.650;10.090;2023-07-09T09:38:49;5.85;;;2.60;;
78224;SDS011;67498;53.650;10.090;2023-07-09T09:41:21;6.20;;;2.28;;
78224;SDS011;67498;53.650;10.090;2023-07-09T09:43:50;5.43;;;2.33;;
78224;SDS011;67498;53.650;10.090;2023-07-09T09:46:18;6.00;;;2.07;;
78224;SDS011;67498;53.650;10.090;2023-07-09T09:48:49;6.32;;;2.22;;
78224;SDS011;67498;53.650;10.090;2023-07-09T09:51:16;4.45;;;2.00;;
78224;SDS011;67498;53.650;10.090;2023-07-09T09:53:49;5.15;;;2.03;;
78224;SDS011;67498;53.650;10.090;2023-07-09T09:56:23;6.18;;;2.22;;
78224;SDS011;67498;53.650;10.090;2023-07-09T09:58:54;5.20;;;2.17;;
78224;SDS011;67498;53.650;10.090;2023-07-09T10:01:21;4.80;;;2.00;;
78224;SDS011;67498;53.650;10.090;2023-07-09T10:03:54;5.03;;;2.30;;
78224;SDS011;67498;53.650;10.090;2023-07-09T10:06:24;4.40;;;2.15;;
78224;SDS011;67498;53.650;10.090;2023-07-09T10:09:09;4.80;;;2.17;;
78224;SDS011;67498;53.650;10.090;2023-07-09T10:14:19;5.07;;;2.28;;
78224;SDS011;67498;53.650;10.090;2023-07-09T10:16:48;4.25;;;1.90;;
78224;SDS011;67498;53.650;10.090;2023-07-09T10:19:19;6.25;;;2.40;;
78224;SDS011;67498;53.650;10.090;2023-07-09T10:22:05;25.45;;;13.25;;
78224;SDS011;67498;53.650;10.090;2023-07-09T10:27:35;5.53;;;2.40;;
78224;SDS011;67498;53.650;10.090;2023-07-09T10:32:30;9.48;;;2.78;;
78224;SDS011;67498;53.650;10.090;2023-07-09T10:40:33;6.63;;;2.60;;
78224;SDS011;67498;53.650;10.090;2023-07-09T10:43:04;5.78;;;2.50;;
78224;SDS011;67498;53.650;10.090;2023-07-09T10:45:34;4.90;;;2.22;;
78224;SDS011;67498;53.650;10.090;2023-07-09T10:50:42;7.07;;;2.25;;
78224;SDS011;67498;53.650;10.090;2023-07-09T10:53:14;7.57;;;3.03;;
78224;SDS011;67498;53.650;10.090;2023-07-09T11:01:48;7.07;;;2.67;;
78224;SDS011;67498;53.650;10.090;2023-07-09T11:07:26;6.67;;;2.60;;
78224;SDS011;67498;53.650;10.090;2023-07-09T11:09:55;6.25;;;2.75;;
78224;SDS011;67498;53.650;10.090;2023-07-09T11:12:26;6.00;;;2.50;;
78224;SDS011;67498;53.650;10.090;2023-07-09T11:15:06;5.78;;;2.85;;
78224;SDS011;67498;53.650;10.090;2023-07-09T11:17:39;6.55;;;3.10;;
78224;SDS011;67498;53.650;10.090;2023-07-09T11:20:17;5.77;;;2.77;;
78224;SDS011;67498;53.650;10.090;2023-07-09T11:22:50;5.90;;;2.72;;
78224;SDS011;67498;53.650;10.090;2023-07-09T11:25:26;5.13;;;2.45;;
78224;SDS011;67498;53.650;10.090;2023-07-09T11:28:00;6.55;;;2.90;;
78224;SDS011;67498;53.650;10.090;2023-07-09T11:30:28;8.35;;;2.78;;
78224;SDS011;67498;53.650;10.090;2023-07-09T11:32:58;5.63;;;2.80;;
78224;SDS011;67498;53.650;10.090;2023-07-09T11:35:27;6.55;;;2.90;;
78224;SDS011;67498;53.650;10.090;2023-07-09T11:38:07;5.40;;;2.85;;
78224;SDS011;67498;53.650;10.090;2023-07-09T11:40:44;5.75;;;2.92;;
78224;SDS011;67498;53.650;10.090;2023-07-09T11:43:24;5.20;;;2.70;;
78224;SDS011;67498;53.650;10.090;2023-07-09T11:45:52;7.80;;;3.13;;
78224;SDS011;67498;53.650;10.090;2023-07-09T11:50:52;5.85;;;2.88;;
78224;SDS011;67498;53.650;10.090;2023-07-09T11:55:56;6.93;;;3.13;;
78224;SDS011;67498;53.650;10.090;2023-07-09T11:58:21;5.57;;;2.93;;
78224;SDS011;67498;53.650;10.090;2023-07-09T12:00:47;7.53;;;3.10;;
78224;SDS011;67498;53.650;10.090;2023-07-09T12:03:37;5.97;;;2.80;;
78224;SDS011;67498;53.650;10.090;2023-07-09T12:06:02;6.67;;;3.03;;
78224;SDS011;67498;53.650;10.090;2023-07-09T12:08:36;5.97;;;2.83;;
78224;SDS011;67498;53.650;10.090;2023-07-09T12:11:04;7.93;;;4.53;;
78224;SDS011;67498;53.650;10.090;2023-07-09T12:13:37;5.38;;;2.72;;
78224;SDS011;67498;53.650;10.090;2023-07-09T12:16:03;7.15;;;3.05;;
78224;SDS011;67498;53.650;10.090;2023-07-09T12:18:29;6.07;;;3.40;;
78224;SDS011;67498;53.650;10.090;2023-07-09T12:20:54;6.47;;;2.83;;
78224;SDS011;67498;53.650;10.090;2023-07-09T12:23:23;10.27;;;4.07;;
78224;SDS011;67498;53.650;10.090;2023-07-09T12:25:52;6.75;;;2.92;;
78224;SDS011;67498;53.650;10.090;2023-07-09T12:28:19;5.47;;;2.78;;
78224;SDS011;67498;53.650;10.090;2023-07-09T12:30:46;8.32;;;3.65;;
78224;SDS011;67498;53.650;10.090;2023-07-09T12:33:15;7.57;;;3.60;;
78224;SDS011;67498;53.650;10.090;2023-07-09T12:35:41;6.30;;;2.90;;
78224;SDS011;67498;53.650;10.090;2023-07-09T12:38:11;7.67;;;4.00;;
78224;SDS011;67498;53.650;10.090;2023-07-09T12:40:43;6.68;;;3.22;;
78224;SDS011;67498;53.650;10.090;2023-07-09T12:43:09;6.45;;;3.08;;
78224;SDS011;67498;53.650;10.090;2023-07-09T12:45:36;6.73;;;3.23;;
78224;SDS011;67498;53.650;10.090;2023-07-09T12:48:01;6.63;;;3.53;;
78224;SDS011;67498;53.650;10.090;2023-07-09T12:50:31;6.70;;;2.90;;
78224;SDS011;67498;53.650;10.090;2023-07-09T12:53:14;7.40;;;3.10;;
78224;SDS011;67498;53.650;10.090;2023-07-09T12:55:42;8.43;;;3.60;;
78224;SDS011;67498;53.650;10.090;2023-07-09T12:58:11;10.00;;;3.20;;
78224;SDS011;67498;53.650;10.090;2023-07-09T13:00:43;6.43;;;3.05;;
78224;SDS011;67498;53.650;10.090;2023-07-09T13:03:16;5.80;;;3.03;;
78224;SDS011;67498;53.650;10.090;2023-07-09T13:05:55;8.10;;;3.45;;
78224;SDS011;67498;53.650;10.090;2023-07-09T13:08:24;7.40;;;2.80;;
78224;SDS011;67498;53.650;10.090;2023-07-09T13:10:50;12.23;;;3.05;;
78224;SDS011;67498;53.650;10.090;2023-07-09T13:13:17;7.22;;;3.60;;
78224;SDS011;67498;53.650;10.090;2023-07-09T13:15:48;5.37;;;2.87;;
78224;SDS011;67498;53.650;10.090;2023-07-09T13:18:15;7.07;;;3.28;;
78224;SDS011;67498;53.650;10.090;2023-07-09T13:20:42;5.68;;;2.85;;
78224;SDS011;67498;53.650;10.090;2023-07-09T13:23:13;7.40;;;3.00;;
78224;SDS011;67498;53.650;10.090;2023-07-09T13:25:40;6.43;;;2.90;;
78224;SDS011;67498;53.650;10.090;2023-07-09T13:28:16;6.10;;;2.33;;
78224;SDS011;67498;53.650;10.090;2023-07-09T13:30:41;6.35;;;2.90;;
78224;SDS011;67498;53.650;10.090;2023-07-09T13:33:10;6.43;;;2.70;;
78224;SDS011;67498;53.650;10.090;2023-07-09T13:35:36;6.28;;;3.25;;
78224;SDS011;67498;53.650;10.090;2023-07-09T13:38:02;6.33;;;2.70;;
78224;SDS011;67498;53.650;10.090;2023-07-09T13:40:30;5.85;;;2.80;;
78224;SDS011;67498;53.650;10.090;2023-07-09T13:42:56;5.33;;;2.87;;
78224;SDS011;67498;53.650;10.090;2023-07-09T13:45:23;6.80;;;3.20;;
78224;SDS011;67498;53.650;10.090;2023-07-09T13:47:50;7.40;;;2.83;;
78224;SDS011;67498;53.650;10.090;2023-07-09T13:50:17;5.80;;;2.75;;
78224;SDS011;67498;53.650;10.090;2023-07-09T13:52:43;8.73;;;2.70;;
78224;SDS011;67498;53.650;10.090;2023-07-09T13:55:17;5.13;;;2.40;;
78224;SDS011;67498;53.650;10.090;2023-07-09T13:57:47;7.03;;;2.57;;
78224;SDS011;67498;53.650;10.090;2023-07-09T14:00:13;5.38;;;2.67;;
78224;SDS011;67498;53.650;10.090;2023-07-09T14:02:39;7.85;;;2.53;;
78224;SDS011;67498;53.650;10.090;2023-07-09T14:05:06;8.55;;;2.85;;
78224;SDS011;67498;53.650;10.090;2023-07-09T14:07:34;6.97;;;2.77;;
78224;SDS011;67498;53.650;10.090;2023-07-09T14:10:01;4.97;;;2.35;;
78224;SDS011;67498;53.650;10.090;2023-07-09T14:12:29;6.55;;;2.80;;
78224;SDS011;67498;53.650;10.090;2023-07-09T14:14:56;6.15;;;2.92;;
78224;SDS011;67498;53.650;10.090;2023-07-09T14:17:23;6.70;;;2.60;;
78224;SDS011;67498;53.650;10.090;2023-07-09T14:19:50;7.25;;;2.63;;
78224;SDS011;67498;53.650;10.090;2023-07-09T14:22:28;6.38;;;2.90;;
78224;SDS011;67498;53.650;10.090;2023-07-09T14:24:57;5.80;;;2.40;;
78224;SDS011;67498;53.650;10.090;2023-07-09T14:27:24;6.40;;;2.85;;
78224;SDS011;67498;53.650;10.090;2023-07-09T14:29:49;7.27;;;3.10;;
78224;SDS011;67498;53.650;10.090;2023-07-09T14:32:36;9.10;;;3.07;;
78224;SDS011;67498;53.650;10.090;2023-07-09T14:35:09;7.05;;;2.80;;
78224;SDS011;67498;53.650;10.090;2023-07-09T14:37:37;6.40;;;2.75;;
78224;SDS011;67498;53.650;10.090;2023-07-09T14:40:02;5.77;;;2.87;;
78224;SDS011;67498;53.650;10.090;2023-07-09T14:42:30;7.05;;;2.85;;
78224;SDS011;67498;53.650;10.090;2023-07-09T14:44:55;7.60;;;2.97;;
78224;SDS011;67498;53.650;10.090;2023-07-09T14:47:20;8.07;;;2.70;;
78224;SDS011;67498;53.650;10.090;2023-07-09T14:49:46;5.50;;;2.70;;
78224;SDS011;67498;53.650;10.090;2023-07-09T14:52:13;5.87;;;2.90;;
78224;SDS011;67498;53.650;10.090;2023-07-09T14:54:40;6.57;;;2.97;;
78224;SDS011;67498;53.650;10.090;2023-07-09T14:57:08;6.57;;;2.92;;
78224;SDS011;67498;53.650;10.090;2023-07-09T14:59:41;6.50;;;2.90;;
78224;SDS011;67498;53.650;10.090;2023-07-09T15:02:21;6.23;;;2.70;;
78224;SDS011;67498;53.650;10.090;2023-07-09T15:04:48;7.53;;;2.30;;
78224;SDS011;67498;53.650;10.090;2023-07-09T15:07:13;7.13;;;3.03;;
78224;SDS011;67498;53.650;10.090;2023-07-09T15:09:39;14.27;;;7.13;;
78224;SDS011;67498;53.650;10.090;2023-07-09T15:12:25;6.30;;;3.27;;
78224;SDS011;67498;53.650;10.090;2023-07-09T15:14:58;5.78;;;2.70;;
78224;SDS011;67498;53.650;10.090;2023-07-09T15:17:31;5.57;;;2.90;;
78224;SDS011;67498;53.650;10.090;2023-07-09T15:19:56;6.37;;;2.83;;
78224;SDS011;67498;53.650;10.090;2023-07-09T15:22:27;8.10;;;2.70;;
78224;SDS011;67498;53.650;10.090;2023-07-09T15:24:56;6.47;;;2.70;;